sensor_id;sensor_type;location;lat;lon;timestamp;P1;durP1;ratioP1;P2;durP2;ratioP2
60372;SDS011;46216;52.220;5.134;2023-04-24T00:00:45;1.48;;;1.30;;
60372;SDS011;46216;52.220;5.134;2023-04-24T00:03:11;1.40;;;0.98;;
60372;SDS011;46216;52.220;5.134;2023-04-24T00:05:37;1.00;;;0.90;;
60372;SDS011;46216;52.220;5.134;2023-04-24T00:08:05;0.90;;;0.77;;
60372;SDS011;46216;52.220;5.134;2023-04-24T00:10:31;1.10;;;1.00;;
60372;SDS011;46216;52.220;5.134;2023-04-24T00:12:56;1.38;;;1.08;;
60372;SDS011;46216;52.220;5.134;2023-04-24T00:15:22;2.30;;;1.58;;
60372;SDS011;46216;52.220;5.134;2023-04-24T00:17:47;2.95;;;1.90;;
60372;SDS011;46216;52.220;5.134;2023-04-24T00:20:12;1.65;;;1.45;;
60372;SDS011;46216;52.220;5.134;2023-04-24T00:22:39;1.75;;;1.30;;
60372;SDS011;46216;52.220;5.134;2023-04-24T00:25:05;2.40;;;1.48;;
60372;SDS011;46216;52.220;5.134;2023-04-24T00:27:31;1.88;;;1.00;;
60372;SDS011;46216;52.220;5.134;2023-04-24T00:29:57;1.33;;;0.80;;
60372;SDS011;46216;52.220;5.134;2023-04-24T00:32:22;1.60;;;0.77;;
60372;SDS011;46216;52.220;5.134;2023-04-24T00:34:48;1.20;;;0.82;;
60372;SDS011;46216;52.220;5.134;2023-04-24T00:37:13;1.63;;;1.02;;
60372;SDS011;46216;52.220;5.134;2023-04-24T00:39:38;1.95;;;1.50;;
60372;SDS011;46216;52.220;5.134;2023-04-24T00:42:04;2.83;;;1.80;;
60372;SDS011;46216;52.220;5.134;2023-04-24T00:44:31;3.13;;;1.98;;
60372;SDS011;46216;52.220;5.134;2023-04-24T00:46:57;3.67;;;2.25;;
60372;SDS011;46216;52.220;5.134;2023-04-24T00:49:24;2.47;;;2.08;;
60372;SDS011;46216;52.220;5.134;2023-04-24T00:51:49;3.75;;;2.13;;
60372;SDS011;46216;52.220;5.134;2023-04-24T00:54:16;3.00;;;1.80;;
60372;SDS011;46216;52.220;5.134;2023-04-24T00:56:42;3.55;;;2.03;;
60372;SDS011;46216;52.220;5.134;2023-04-24T00:59:09;3.33;;;1.80;;
60372;SDS011;46216;52.220;5.134;2023-04-24T01:01:36;1.70;;;1.40;;
60372;SDS011;46216;52.220;5.134;2023-04-24T01:04:02;3.70;;;1.70;;
60372;SDS011;46216;52.220;5.134;2023-04-24T01:06:28;2.72;;;1.55;;
60372;SDS011;46216;52.220;5.134;2023-04-24T01:08:56;1.90;;;1.30;;
60372;SDS011;46216;52.220;5.134;2023-04-24T01:11:22;5.20;;;1.50;;
60372;SDS011;46216;52.220;5.134;2023-04-24T01:13:48;2.25;;;1.20;;
60372;SDS011;46216;52.220;5.134;2023-04-24T01:16:16;1.92;;;1.23;;
60372;SDS011;46216;52.220;5.134;2023-04-24T01:18:43;5.00;;;1.05;;
60372;SDS011;46216;52.220;5.134;2023-04-24T01:21:09;2.55;;;1.10;;
60372;SDS011;46216;52.220;5.134;2023-04-24T01:23:38;3.83;;;1.35;;
60372;SDS011;46216;52.220;5.134;2023-04-24T01:26:03;2.08;;;1.13;;
60372;SDS011;46216;52.220;5.134;2023-04-24T01:28:29;5.43;;;1.75;;
60372;SDS011;46216;52.220;5.134;2023-04-24T01:30:55;2.17;;;1.50;;
60372;SDS011;46216;52.220;5.134;2023-04-24T01:53:31;2.00;;;1.55;;
60372;SDS011;46216;52.220;5.134;2023-04-24T01:55:57;2.65;;;1.60;;
60372;SDS011;46216;52.220;5.134;2023-04-24T01:58:22;3.20;;;1.90;;
60372;SDS011;46216;52.220;5.134;2023-04-24T02:00:48;2.25;;;1.50;;
60372;SDS011;46216;52.220;5.134;2023-04-24T02:03:13;1.85;;;1.60;;
60372;SDS011;46216;52.220;5.134;2023-04-24T02:05:39;2.30;;;1.65;;
60372;SDS011;46216;52.220;5.134;2023-04-24T02:08:04;2.42;;;1.63;;
60372;SDS011;46216;52.220;5.134;2023-04-24T02:10:29;2.10;;;1.52;;
60372;SDS011;46216;52.220;5.134;2023-04-24T02:12:55;3.30;;;1.80;;
60372;SDS011;46216;52.220;5.134;2023-04-24T02:15:20;2.40;;;1.48;;
60372;SDS011;46216;52.220;5.134;2023-04-24T02:17:46;1.90;;;1.50;;
60372;SDS011;46216;52.220;5.134;2023-04-24T02:20:11;2.25;;;1.50;;
60372;SDS011;46216;52.220;5.134;2023-04-24T02:22:36;3.05;;;1.48;;
60372;SDS011;46216;52.220;5.134;2023-04-24T02:25:02;1.42;;;0.90;;
60372;SDS011;46216;52.220;5.134;2023-04-24T02:27:27;2.88;;;1.35;;
60372;SDS011;46216;52.220;5.134;2023-04-24T02:29:53;2.85;;;1.20;;
60372;SDS011;46216;52.220;5.134;2023-04-24T02:32:18;1.90;;;1.00;;
60372;SDS011;46216;52.220;5.134;2023-04-24T02:34:43;2.28;;;1.10;;
60372;SDS011;46216;52.220;5.134;2023-04-24T02:37:09;1.95;;;1.20;;
60372;SDS011;46216;52.220;5.134;2023-04-24T02:39:34;2.22;;;1.00;;
60372;SDS011;46216;52.220;5.134;2023-04-24T02:42:00;2.20;;;1.30;;
60372;SDS011;46216;52.220;5.134;2023-04-24T02:44:26;3.33;;;1.70;;
60372;SDS011;46216;52.220;5.134;2023-04-24T02:46:51;4.88;;;1.70;;
60372;SDS011;46216;52.220;5.134;2023-04-24T02:49:17;4.15;;;1.90;;
60372;SDS011;46216;52.220;5.134;2023-04-24T02:51:42;5.40;;;3.28;;
60372;SDS011;46216;52.220;5.134;2023-04-24T02:54:08;4.20;;;2.00;;
60372;SDS011;46216;52.220;5.134;2023-04-24T02:56:36;4.07;;;2.00;;
60372;SDS011;46216;52.220;5.134;2023-04-24T02:59:01;4.10;;;2.13;;
60372;SDS011;46216;52.220;5.134;2023-04-24T03:01:27;4.25;;;2.33;;
60372;SDS011;46216;52.220;5.134;2023-04-24T03:03:52;3.50;;;2.17;;
60372;SDS011;46216;52.220;5.134;2023-04-24T03:06:17;3.47;;;2.17;;
60372;SDS011;46216;52.220;5.134;2023-04-24T03:08:42;4.55;;;2.28;;
60372;SDS011;46216;52.220;5.134;2023-04-24T03:11:08;3.55;;;2.10;;
60372;SDS011;46216;52.220;5.134;2023-04-24T03:13:33;3.58;;;2.15;;
60372;SDS011;46216;52.220;5.134;2023-04-24T03:15:58;2.85;;;2.20;;
60372;SDS011;46216;52.220;5.134;2023-04-24T03:18:24;2.85;;;2.30;;
60372;SDS011;46216;52.220;5.134;2023-04-24T03:20:50;3.75;;;2.58;;
60372;SDS011;46216;52.220;5.134;2023-04-24T03:23:15;4.47;;;2.75;;
60372;SDS011;46216;52.220;5.134;2023-04-24T03:25:40;4.82;;;3.20;;
60372;SDS011;46216;52.220;5.134;2023-04-24T03:28:07;3.70;;;2.95;;
60372;SDS011;46216;52.220;5.134;2023-04-24T03:30:33;6.18;;;3.22;;
60372;SDS011;46216;52.220;5.134;2023-04-24T03:32:58;7.00;;;2.92;;
60372;SDS011;46216;52.220;5.134;2023-04-24T03:35:23;3.92;;;3.00;;
60372;SDS011;46216;52.220;5.134;2023-04-24T03:37:49;6.35;;;2.97;;
60372;SDS011;46216;52.220;5.134;2023-04-24T03:40:14;3.65;;;2.50;;
60372;SDS011;46216;52.220;5.134;2023-04-24T03:42:39;4.63;;;2.50;;
60372;SDS011;46216;52.220;5.134;2023-04-24T03:45:05;5.15;;;2.40;;
60372;SDS011;46216;52.220;5.134;2023-04-24T03:47:31;2.30;;;2.05;;
60372;SDS011;46216;52.220;5.134;2023-04-24T03:49:56;2.22;;;1.83;;
60372;SDS011;46216;52.220;5.134;2023-04-24T03:52:22;3.42;;;1.77;;
60372;SDS011;46216;52.220;5.134;2023-04-24T03:54:47;4.43;;;1.70;;
60372;SDS011;46216;52.220;5.134;2023-04-24T03:57:12;2.63;;;1.80;;
60372;SDS011;46216;52.220;5.134;2023-04-24T03:59:37;5.57;;;2.30;;
60372;SDS011;46216;52.220;5.134;2023-04-24T04:02:03;2.38;;;2.13;;
60372;SDS011;46216;52.220;5.134;2023-04-24T04:04:28;5.85;;;2.10;;
60372;SDS011;46216;52.220;5.134;2023-04-24T04:06:53;4.15;;;1.95;;
60372;SDS011;46216;52.220;5.134;2023-04-24T04:09:19;3.95;;;2.30;;
60372;SDS011;46216;52.220;5.134;2023-04-24T04:11:44;3.80;;;2.28;;
60372;SDS011;46216;52.220;5.134;2023-04-24T04:14:10;3.00;;;2.17;;
60372;SDS011;46216;52.220;5.134;2023-04-24T04:16:35;4.90;;;2.47;;
60372;SDS011;46216;52.220;5.134;2023-04-24T04:19:01;4.05;;;2.40;;
60372;SDS011;46216;52.220;5.134;2023-04-24T04:21:27;5.22;;;2.70;;
60372;SDS011;46216;52.220;5.134;2023-04-24T04:23:53;6.43;;;2.88;;
60372;SDS011;46216;52.220;5.134;2023-04-24T04:26:18;5.03;;;2.80;;
60372;SDS011;46216;52.220;5.134;2023-04-24T04:28:46;4.10;;;2.95;;
60372;SDS011;46216;52.220;5.134;2023-04-24T04:31:12;5.32;;;2.67;;
60372;SDS011;46216;52.220;5.134;2023-04-24T04:33:38;4.50;;;2.45;;
60372;SDS011;46216;52.220;5.134;2023-04-24T04:36:04;4.38;;;2.90;;
60372;SDS011;46216;52.220;5.134;2023-04-24T04:38:30;3.17;;;2.40;;
60372;SDS011;46216;52.220;5.134;2023-04-24T04:40:55;3.10;;;2.33;;
60372;SDS011;46216;52.220;5.134;2023-04-24T04:43:24;3.80;;;2.40;;
60372;SDS011;46216;52.220;5.134;2023-04-24T04:45:50;3.92;;;2.60;;
60372;SDS011;46216;52.220;5.134;2023-04-24T04:48:16;5.13;;;2.63;;
60372;SDS011;46216;52.220;5.134;2023-04-24T04:50:43;3.60;;;2.70;;
60372;SDS011;46216;52.220;5.134;2023-04-24T04:53:09;5.05;;;3.03;;
60372;SDS011;46216;52.220;5.134;2023-04-24T04:55:35;6.60;;;3.05;;
60372;SDS011;46216;52.220;5.134;2023-04-24T04:58:01;4.80;;;2.38;;
60372;SDS011;46216;52.220;5.134;2023-04-24T05:00:26;3.60;;;2.42;;
60372;SDS011;46216;52.220;5.134;2023-04-24T05:02:53;6.97;;;2.40;;
60372;SDS011;46216;52.220;5.134;2023-04-24T05:05:19;4.38;;;1.80;;
60372;SDS011;46216;52.220;5.134;2023-04-24T05:07:44;4.40;;;1.20;;
60372;SDS011;46216;52.220;5.134;2023-04-24T05:10:10;3.08;;;1.30;;
60372;SDS011;46216;52.220;5.134;2023-04-24T05:12:35;1.67;;;1.20;;
60372;SDS011;46216;52.220;5.134;2023-04-24T05:15:01;2.85;;;1.00;;
60372;SDS011;46216;52.220;5.134;2023-04-24T05:17:26;1.98;;;0.98;;
60372;SDS011;46216;52.220;5.134;2023-04-24T05:19:52;2.50;;;1.00;;
60372;SDS011;46216;52.220;5.134;2023-04-24T05:22:17;1.73;;;0.90;;
60372;SDS011;46216;52.220;5.134;2023-04-24T05:24:45;1.38;;;0.70;;
60372;SDS011;46216;52.220;5.134;2023-04-24T05:27:11;1.30;;;0.80;;
60372;SDS011;46216;52.220;5.134;2023-04-24T05:29:36;0.88;;;0.60;;
60372;SDS011;46216;52.220;5.134;2023-04-24T05:32:01;1.25;;;0.60;;
60372;SDS011;46216;52.220;5.134;2023-04-24T05:34:27;3.08;;;0.75;;
60372;SDS011;46216;52.220;5.134;2023-04-24T05:36:52;0.82;;;0.60;;
60372;SDS011;46216;52.220;5.134;2023-04-24T05:39:18;3.13;;;0.65;;
60372;SDS011;46216;52.220;5.134;2023-04-24T05:41:44;1.55;;;0.73;;
60372;SDS011;46216;52.220;5.134;2023-04-24T05:44:10;0.85;;;0.70;;
60372;SDS011;46216;52.220;5.134;2023-04-24T05:46:35;1.70;;;0.70;;
60372;SDS011;46216;52.220;5.134;2023-04-24T05:49:01;0.77;;;0.60;;
60372;SDS011;46216;52.220;5.134;2023-04-24T05:51:27;1.35;;;0.68;;
60372;SDS011;46216;52.220;5.134;2023-04-24T05:53:53;1.40;;;0.90;;
60372;SDS011;46216;52.220;5.134;2023-04-24T05:56:18;2.95;;;0.90;;
60372;SDS011;46216;52.220;5.134;2023-04-24T05:58:44;1.02;;;0.93;;
60372;SDS011;46216;52.220;5.134;2023-04-24T06:01:11;3.35;;;1.40;;
60372;SDS011;46216;52.220;5.134;2023-04-24T06:03:37;4.88;;;2.10;;
60372;SDS011;46216;52.220;5.134;2023-04-24T06:06:03;5.25;;;2.88;;
60372;SDS011;46216;52.220;5.134;2023-04-24T06:08:29;6.85;;;4.28;;
60372;SDS011;46216;52.220;5.134;2023-04-24T06:10:54;9.35;;;5.50;;
60372;SDS011;46216;52.220;5.134;2023-04-24T06:13:19;12.27;;;6.28;;
60372;SDS011;46216;52.220;5.134;2023-04-24T06:15:45;15.10;;;7.43;;
60372;SDS011;46216;52.220;5.134;2023-04-24T06:18:10;12.18;;;7.20;;
60372;SDS011;46216;52.220;5.134;2023-04-24T06:20:38;14.95;;;7.82;;
60372;SDS011;46216;52.220;5.134;2023-04-24T06:23:04;16.67;;;9.35;;
60372;SDS011;46216;52.220;5.134;2023-04-24T06:25:30;19.15;;;10.30;;
60372;SDS011;46216;52.220;5.134;2023-04-24T06:27:55;17.48;;;10.23;;
60372;SDS011;46216;52.220;5.134;2023-04-24T06:30:21;20.50;;;10.85;;
60372;SDS011;46216;52.220;5.134;2023-04-24T06:32:46;24.30;;;11.32;;
60372;SDS011;46216;52.220;5.134;2023-04-24T06:35:12;18.85;;;11.05;;
60372;SDS011;46216;52.220;5.134;2023-04-24T06:37:41;20.65;;;11.57;;
60372;SDS011;46216;52.220;5.134;2023-04-24T06:40:09;23.40;;;12.35;;
60372;SDS011;46216;52.220;5.134;2023-04-24T06:42:35;20.52;;;12.25;;
60372;SDS011;46216;52.220;5.134;2023-04-24T06:45:01;22.00;;;12.23;;
60372;SDS011;46216;52.220;5.134;2023-04-24T06:47:26;19.48;;;12.15;;
60372;SDS011;46216;52.220;5.134;2023-04-24T06:49:52;22.77;;;12.52;;
60372;SDS011;46216;52.220;5.134;2023-04-24T06:52:17;23.13;;;11.88;;
60372;SDS011;46216;52.220;5.134;2023-04-24T06:54:43;25.50;;;11.07;;
60372;SDS011;46216;52.220;5.134;2023-04-24T06:57:08;22.58;;;11.43;;
60372;SDS011;46216;52.220;5.134;2023-04-24T06:59:35;21.45;;;11.32;;
60372;SDS011;46216;52.220;5.134;2023-04-24T07:02:00;19.35;;;11.13;;
60372;SDS011;46216;52.220;5.134;2023-04-24T07:04:25;17.75;;;10.23;;
60372;SDS011;46216;52.220;5.134;2023-04-24T07:06:51;22.50;;;10.38;;
60372;SDS011;46216;52.220;5.134;2023-04-24T07:09:19;17.08;;;10.18;;
60372;SDS011;46216;52.220;5.134;2023-04-24T07:11:45;20.83;;;11.18;;
60372;SDS011;46216;52.220;5.134;2023-04-24T07:14:11;21.00;;;10.73;;
60372;SDS011;46216;52.220;5.134;2023-04-24T07:16:37;17.67;;;9.65;;
60372;SDS011;46216;52.220;5.134;2023-04-24T07:19:02;22.20;;;9.75;;
60372;SDS011;46216;52.220;5.134;2023-04-24T07:21:27;22.13;;;9.63;;
60372;SDS011;46216;52.220;5.134;2023-04-24T07:23:53;18.73;;;8.75;;
60372;SDS011;46216;52.220;5.134;2023-04-24T07:26:19;20.30;;;9.50;;
60372;SDS011;46216;52.220;5.134;2023-04-24T07:28:45;17.83;;;9.30;;
60372;SDS011;46216;52.220;5.134;2023-04-24T07:31:11;20.98;;;9.10;;
60372;SDS011;46216;52.220;5.134;2023-04-24T07:33:36;23.55;;;10.73;;
60372;SDS011;46216;52.220;5.134;2023-04-24T07:36:02;19.15;;;10.00;;
60372;SDS011;46216;52.220;5.134;2023-04-24T07:38:29;20.67;;;10.23;;
60372;SDS011;46216;52.220;5.134;2023-04-24T07:40:55;16.48;;;9.75;;
60372;SDS011;46216;52.220;5.134;2023-04-24T07:43:20;18.38;;;9.20;;
60372;SDS011;46216;52.220;5.134;2023-04-24T07:45:46;19.42;;;7.78;;
60372;SDS011;46216;52.220;5.134;2023-04-24T07:48:11;18.70;;;7.15;;
60372;SDS011;46216;52.220;5.134;2023-04-24T07:50:39;18.55;;;7.43;;
60372;SDS011;46216;52.220;5.134;2023-04-24T07:53:05;16.17;;;6.72;;
60372;SDS011;46216;52.220;5.134;2023-04-24T07:55:30;16.35;;;5.60;;
60372;SDS011;46216;52.220;5.134;2023-04-24T07:57:56;14.95;;;5.60;;
60372;SDS011;46216;52.220;5.134;2023-04-24T08:00:21;21.67;;;5.63;;
60372;SDS011;46216;52.220;5.134;2023-04-24T08:02:47;11.15;;;3.88;;
60372;SDS011;46216;52.220;5.134;2023-04-24T08:05:12;18.20;;;4.97;;
60372;SDS011;46216;52.220;5.134;2023-04-24T08:07:37;12.15;;;4.07;;
60372;SDS011;46216;52.220;5.134;2023-04-24T08:10:03;17.20;;;4.25;;
60372;SDS011;46216;52.220;5.134;2023-04-24T08:12:29;15.85;;;3.72;;
60372;SDS011;46216;52.220;5.134;2023-04-24T08:14:55;15.32;;;3.80;;
60372;SDS011;46216;52.220;5.134;2023-04-24T08:17:20;16.60;;;3.83;;
60372;SDS011;46216;52.220;5.134;2023-04-24T08:19:46;16.02;;;3.65;;
60372;SDS011;46216;52.220;5.134;2023-04-24T08:22:13;15.43;;;3.65;;
60372;SDS011;46216;52.220;5.134;2023-04-24T08:24:39;12.07;;;2.85;;
60372;SDS011;46216;52.220;5.134;2023-04-24T08:27:04;17.15;;;3.72;;
60372;SDS011;46216;52.220;5.134;2023-04-24T08:29:30;14.95;;;3.00;;
60372;SDS011;46216;52.220;5.134;2023-04-24T08:31:55;10.48;;;2.70;;
60372;SDS011;46216;52.220;5.134;2023-04-24T08:34:21;11.43;;;3.15;;
60372;SDS011;46216;52.220;5.134;2023-04-24T08:36:46;10.15;;;3.05;;
60372;SDS011;46216;52.220;5.134;2023-04-24T08:39:12;7.90;;;2.10;;
60372;SDS011;46216;52.220;5.134;2023-04-24T08:41:37;9.15;;;2.72;;
60372;SDS011;46216;52.220;5.134;2023-04-24T08:44:03;10.88;;;2.65;;
60372;SDS011;46216;52.220;5.134;2023-04-24T08:46:29;6.57;;;2.15;;
60372;SDS011;46216;52.220;5.134;2023-04-24T08:48:55;7.20;;;2.45;;
60372;SDS011;46216;52.220;5.134;2023-04-24T08:51:21;6.72;;;2.45;;
60372;SDS011;46216;52.220;5.134;2023-04-24T08:53:48;12.60;;;2.53;;
60372;SDS011;46216;52.220;5.134;2023-04-24T08:56:16;9.73;;;3.17;;
60372;SDS011;46216;52.220;5.134;2023-04-24T08:58:42;10.27;;;2.45;;
60372;SDS011;46216;52.220;5.134;2023-04-24T09:01:08;10.50;;;3.03;;
60372;SDS011;46216;52.220;5.134;2023-04-24T09:03:34;9.25;;;2.88;;
60372;SDS011;46216;52.220;5.134;2023-04-24T09:05:59;7.70;;;2.47;;
60372;SDS011;46216;52.220;5.134;2023-04-24T09:08:25;5.70;;;2.08;;
60372;SDS011;46216;52.220;5.134;2023-04-24T09:10:52;9.13;;;2.40;;
60372;SDS011;46216;52.220;5.134;2023-04-24T09:13:18;8.60;;;2.53;;
60372;SDS011;46216;52.220;5.134;2023-04-24T09:15:44;9.80;;;2.25;;
60372;SDS011;46216;52.220;5.134;2023-04-24T09:18:09;12.10;;;2.30;;
60372;SDS011;46216;52.220;5.134;2023-04-24T09:20:35;9.85;;;2.28;;
60372;SDS011;46216;52.220;5.134;2023-04-24T09:23:31;9.35;;;2.50;;
60372;SDS011;46216;52.220;5.134;2023-04-24T09:25:57;10.48;;;2.50;;
60372;SDS011;46216;52.220;5.134;2023-04-24T09:28:38;11.55;;;2.47;;
60372;SDS011;46216;52.220;5.134;2023-04-24T09:31:09;6.88;;;2.10;;
60372;SDS011;46216;52.220;5.134;2023-04-24T09:33:38;9.43;;;2.60;;
60372;SDS011;46216;52.220;5.134;2023-04-24T09:36:03;8.00;;;2.17;;
60372;SDS011;46216;52.220;5.134;2023-04-24T09:38:34;10.50;;;3.45;;
60372;SDS011;46216;52.220;5.134;2023-04-24T09:41:05;6.75;;;2.10;;
60372;SDS011;46216;52.220;5.134;2023-04-24T09:43:32;6.03;;;2.05;;
60372;SDS011;46216;52.220;5.134;2023-04-24T09:45:58;7.97;;;1.80;;
60372;SDS011;46216;52.220;5.134;2023-04-24T09:48:30;6.40;;;1.70;;
60372;SDS011;46216;52.220;5.134;2023-04-24T09:50:56;5.97;;;2.00;;
60372;SDS011;46216;52.220;5.134;2023-04-24T09:53:25;7.28;;;1.90;;
60372;SDS011;46216;52.220;5.134;2023-04-24T09:55:51;6.95;;;1.77;;
60372;SDS011;46216;52.220;5.134;2023-04-24T09:58:18;5.70;;;1.60;;
60372;SDS011;46216;52.220;5.134;2023-04-24T10:00:49;4.05;;;1.55;;
60372;SDS011;46216;52.220;5.134;2023-04-24T10:03:15;5.75;;;1.40;;
60372;SDS011;46216;52.220;5.134;2023-04-24T10:05:42;2.90;;;1.38;;
60372;SDS011;46216;52.220;5.134;2023-04-24T10:08:11;4.40;;;1.45;;
60372;SDS011;46216;52.220;5.134;2023-04-24T10:10:39;4.53;;;1.38;;
60372;SDS011;46216;52.220;5.134;2023-04-24T10:13:10;4.28;;;1.42;;
60372;SDS011;46216;52.220;5.134;2023-04-24T10:15:37;3.60;;;1.40;;
60372;SDS011;46216;52.220;5.134;2023-04-24T10:18:04;4.05;;;1.33;;
60372;SDS011;46216;52.220;5.134;2023-04-24T10:20:31;9.23;;;2.15;;
60372;SDS011;46216;52.220;5.134;2023-04-24T10:22:58;4.07;;;1.02;;
60372;SDS011;46216;52.220;5.134;2023-04-24T10:25:33;10.40;;;1.33;;
60372;SDS011;46216;52.220;5.134;2023-04-24T10:28:00;4.22;;;1.55;;
60372;SDS011;46216;52.220;5.134;2023-04-24T10:30:27;2.90;;;1.20;;
60372;SDS011;46216;52.220;5.134;2023-04-24T10:33:03;3.90;;;1.20;;
60372;SDS011;46216;52.220;5.134;2023-04-24T10:35:36;3.35;;;1.10;;
60372;SDS011;46216;52.220;5.134;2023-04-24T10:38:06;5.20;;;1.10;;
60372;SDS011;46216;52.220;5.134;2023-04-24T10:40:35;3.40;;;1.10;;
60372;SDS011;46216;52.220;5.134;2023-04-24T10:43:04;3.65;;;1.27;;
60372;SDS011;46216;52.220;5.134;2023-04-24T10:45:33;4.07;;;1.10;;
60372;SDS011;46216;52.220;5.134;2023-04-24T10:50:29;6.03;;;1.20;;
60372;SDS011;46216;52.220;5.134;2023-04-24T10:53:07;8.18;;;1.58;;
60372;SDS011;46216;52.220;5.134;2023-04-24T10:55:43;4.22;;;1.27;;
60372;SDS011;46216;52.220;5.134;2023-04-24T10:58:13;5.00;;;1.38;;
60372;SDS011;46216;52.220;5.134;2023-04-24T11:00:39;6.70;;;1.70;;
60372;SDS011;46216;52.220;5.134;2023-04-24T11:03:27;5.28;;;1.45;;
60372;SDS011;46216;52.220;5.134;2023-04-24T11:08:27;7.35;;;1.08;;
60372;SDS011;46216;52.220;5.134;2023-04-24T11:10:55;3.03;;;0.70;;
60372;SDS011;46216;52.220;5.134;2023-04-24T11:13:23;2.42;;;0.70;;
60372;SDS011;46216;52.220;5.134;2023-04-24T11:24:21;1.15;;;0.55;;
60372;SDS011;46216;52.220;5.134;2023-04-24T11:26:47;0.60;;;0.40;;
60372;SDS011;46216;52.220;5.134;2023-04-24T11:29:13;1.13;;;0.40;;
60372;SDS011;46216;52.220;5.134;2023-04-24T11:31:41;1.55;;;0.60;;
60372;SDS011;46216;52.220;5.134;2023-04-24T11:34:16;2.22;;;0.90;;
60372;SDS011;46216;52.220;5.134;2023-04-24T11:36:46;1.20;;;0.60;;
60372;SDS011;46216;52.220;5.134;2023-04-24T11:39:12;1.73;;;0.75;;
60372;SDS011;46216;52.220;5.134;2023-04-24T11:41:38;2.90;;;1.00;;
60372;SDS011;46216;52.220;5.134;2023-04-24T11:44:05;3.10;;;0.80;;
60372;SDS011;46216;52.220;5.134;2023-04-24T11:46:32;3.95;;;0.85;;
60372;SDS011;46216;52.220;5.134;2023-04-24T11:48:57;3.58;;;0.93;;
60372;SDS011;46216;52.220;5.134;2023-04-24T11:51:24;2.55;;;1.00;;
60372;SDS011;46216;52.220;5.134;2023-04-24T11:53:51;4.85;;;0.95;;
60372;SDS011;46216;52.220;5.134;2023-04-24T11:56:18;4.20;;;1.10;;
60372;SDS011;46216;52.220;5.134;2023-04-24T11:58:47;3.83;;;0.85;;
60372;SDS011;46216;52.220;5.134;2023-04-24T12:01:12;3.25;;;1.20;;
60372;SDS011;46216;52.220;5.134;2023-04-24T12:03:38;3.17;;;1.00;;
60372;SDS011;46216;52.220;5.134;2023-04-24T12:06:07;2.53;;;0.90;;
60372;SDS011;46216;52.220;5.134;2023-04-24T12:08:34;2.38;;;1.00;;
60372;SDS011;46216;52.220;5.134;2023-04-24T12:11:03;2.85;;;1.02;;
60372;SDS011;46216;52.220;5.134;2023-04-24T12:13:29;2.40;;;1.10;;
60372;SDS011;46216;52.220;5.134;2023-04-24T12:15:56;5.85;;;1.10;;
60372;SDS011;46216;52.220;5.134;2023-04-24T12:18:22;3.70;;;1.50;;
60372;SDS011;46216;52.220;5.134;2023-04-24T12:20:48;5.75;;;1.40;;
60372;SDS011;46216;52.220;5.134;2023-04-24T12:23:14;8.38;;;1.30;;
60372;SDS011;46216;52.220;5.134;2023-04-24T12:25:39;5.72;;;1.33;;
60372;SDS011;46216;52.220;5.134;2023-04-24T12:30:32;4.65;;;1.60;;
60372;SDS011;46216;52.220;5.134;2023-04-24T12:32:58;6.38;;;1.70;;
60372;SDS011;46216;52.220;5.134;2023-04-24T12:35:26;5.15;;;1.98;;
60372;SDS011;46216;52.220;5.134;2023-04-24T12:37:53;9.90;;;2.35;;
60372;SDS011;46216;52.220;5.134;2023-04-24T12:40:19;7.65;;;2.00;;
60372;SDS011;46216;52.220;5.134;2023-04-24T12:42:46;9.48;;;2.40;;
60372;SDS011;46216;52.220;5.134;2023-04-24T12:45:13;8.80;;;2.28;;
60372;SDS011;46216;52.220;5.134;2023-04-24T12:47:40;7.30;;;2.00;;
60372;SDS011;46216;52.220;5.134;2023-04-24T12:50:07;9.82;;;2.20;;
60372;SDS011;46216;52.220;5.134;2023-04-24T12:52:34;10.43;;;2.33;;
60372;SDS011;46216;52.220;5.134;2023-04-24T12:55:00;10.52;;;2.22;;
60372;SDS011;46216;52.220;5.134;2023-04-24T12:57:26;9.13;;;2.38;;
60372;SDS011;46216;52.220;5.134;2023-04-24T12:59:57;9.93;;;2.38;;
60372;SDS011;46216;52.220;5.134;2023-04-24T13:02:23;10.02;;;2.40;;
60372;SDS011;46216;52.220;5.134;2023-04-24T13:04:50;9.50;;;2.42;;
60372;SDS011;46216;52.220;5.134;2023-04-24T13:07:15;9.77;;;2.05;;
60372;SDS011;46216;52.220;5.134;2023-04-24T13:09:42;5.80;;;2.20;;
60372;SDS011;46216;52.220;5.134;2023-04-24T13:12:08;9.15;;;2.25;;
60372;SDS011;46216;52.220;5.134;2023-04-24T13:14:37;11.15;;;2.60;;
60372;SDS011;46216;52.220;5.134;2023-04-24T13:17:03;11.98;;;2.50;;
60372;SDS011;46216;52.220;5.134;2023-04-24T13:19:29;12.65;;;2.50;;
60372;SDS011;46216;52.220;5.134;2023-04-24T13:21:55;8.77;;;2.40;;
60372;SDS011;46216;52.220;5.134;2023-04-24T13:24:25;11.20;;;2.83;;
60372;SDS011;46216;52.220;5.134;2023-04-24T13:26:51;8.32;;;2.65;;
60372;SDS011;46216;52.220;5.134;2023-04-24T13:29:17;8.45;;;2.55;;
60372;SDS011;46216;52.220;5.134;2023-04-24T13:31:42;8.57;;;2.40;;
60372;SDS011;46216;52.220;5.134;2023-04-24T13:34:08;9.85;;;3.40;;
60372;SDS011;46216;52.220;5.134;2023-04-24T13:36:33;10.90;;;2.65;;
60372;SDS011;46216;52.220;5.134;2023-04-24T13:38:59;14.13;;;3.03;;
60372;SDS011;46216;52.220;5.134;2023-04-24T13:41:24;8.30;;;2.90;;
60372;SDS011;46216;52.220;5.134;2023-04-24T13:43:49;9.23;;;2.60;;
60372;SDS011;46216;52.220;5.134;2023-04-24T13:46:15;9.13;;;2.85;;
60372;SDS011;46216;52.220;5.134;2023-04-24T13:48:41;8.68;;;2.95;;
60372;SDS011;46216;52.220;5.134;2023-04-24T13:51:06;11.88;;;2.75;;
60372;SDS011;46216;52.220;5.134;2023-04-24T13:53:31;5.97;;;2.50;;
60372;SDS011;46216;52.220;5.134;2023-04-24T13:55:57;9.65;;;2.63;;
60372;SDS011;46216;52.220;5.134;2023-04-24T13:58:23;10.48;;;2.88;;
60372;SDS011;46216;52.220;5.134;2023-04-24T14:00:48;9.32;;;2.75;;
60372;SDS011;46216;52.220;5.134;2023-04-24T14:03:13;10.32;;;3.08;;
60372;SDS011;46216;52.220;5.134;2023-04-24T14:05:39;8.38;;;2.75;;
60372;SDS011;46216;52.220;5.134;2023-04-24T14:08:05;10.10;;;3.35;;
60372;SDS011;46216;52.220;5.134;2023-04-24T14:10:31;12.75;;;3.00;;
60372;SDS011;46216;52.220;5.134;2023-04-24T14:12:56;7.00;;;2.83;;
60372;SDS011;46216;52.220;5.134;2023-04-24T14:15:22;9.13;;;2.83;;
60372;SDS011;46216;52.220;5.134;2023-04-24T14:17:48;9.90;;;2.85;;
60372;SDS011;46216;52.220;5.134;2023-04-24T14:20:14;12.65;;;3.15;;
60372;SDS011;46216;52.220;5.134;2023-04-24T14:22:39;9.30;;;2.85;;
60372;SDS011;46216;52.220;5.134;2023-04-24T14:25:05;9.52;;;3.03;;
60372;SDS011;46216;52.220;5.134;2023-04-24T14:27:31;9.40;;;2.95;;
60372;SDS011;46216;52.220;5.134;2023-04-24T14:29:57;10.00;;;2.30;;
60372;SDS011;46216;52.220;5.134;2023-04-24T14:32:22;4.53;;;2.10;;
60372;SDS011;46216;52.220;5.134;2023-04-24T14:34:47;6.40;;;2.00;;
60372;SDS011;46216;52.220;5.134;2023-04-24T14:37:13;7.25;;;2.33;;
60372;SDS011;46216;52.220;5.134;2023-04-24T14:39:38;5.13;;;2.60;;
60372;SDS011;46216;52.220;5.134;2023-04-24T14:42:03;13.52;;;2.47;;
60372;SDS011;46216;52.220;5.134;2023-04-24T14:44:28;9.77;;;2.58;;
60372;SDS011;46216;52.220;5.134;2023-04-24T14:46:54;7.05;;;2.45;;
60372;SDS011;46216;52.220;5.134;2023-04-24T14:49:20;10.00;;;3.13;;
60372;SDS011;46216;52.220;5.134;2023-04-24T14:51:45;10.80;;;2.97;;
60372;SDS011;46216;52.220;5.134;2023-04-24T14:54:10;11.30;;;3.00;;
60372;SDS011;46216;52.220;5.134;2023-04-24T14:56:36;7.53;;;2.63;;
60372;SDS011;46216;52.220;5.134;2023-04-24T14:59:01;7.38;;;3.05;;
60372;SDS011;46216;52.220;5.134;2023-04-24T15:01:27;10.80;;;3.15;;
60372;SDS011;46216;52.220;5.134;2023-04-24T15:03:52;7.85;;;2.75;;
60372;SDS011;46216;52.220;5.134;2023-04-24T15:06:18;8.20;;;3.15;;
60372;SDS011;46216;52.220;5.134;2023-04-24T15:08:43;8.55;;;3.33;;
60372;SDS011;46216;52.220;5.134;2023-04-24T15:11:09;12.38;;;3.13;;
60372;SDS011;46216;52.220;5.134;2023-04-24T15:13:35;8.18;;;2.88;;